createdAt,value
2023-01-22T00:02:14.636Z,1.60
2023-01-22T00:06:15.858Z,2.10
2023-01-22T00:10:17.456Z,1.50
2023-01-22T00:14:18.594Z,1.00
2023-01-22T00:18:19.932Z,0.90
2023-01-22T00:22:21.669Z,1.00
2023-01-22T00:26:22.742Z,0.80
2023-01-22T00:30:23.857Z,0.90
2023-01-22T00:34:24.837Z,0.60
2023-01-22T00:38:25.994Z,1.40
2023-01-22T00:42:27.067Z,1.30
2023-01-22T00:46:28.160Z,1.50
2023-01-22T00:50:29.223Z,1.00
2023-01-22T00:54:30.334Z,1.40
2023-01-22T00:58:31.383Z,1.10
2023-01-22T01:02:32.533Z,1.30
2023-01-22T01:06:33.648Z,0.80
2023-01-22T01:10:34.622Z,1.60
2023-01-22T01:14:35.707Z,0.90
2023-01-22T01:22:39.849Z,1.40
2023-01-22T01:26:41.355Z,1.20
2023-01-22T01:30:42.899Z,1.30
2023-01-22T01:34:45.040Z,1.50
2023-01-22T01:38:47.323Z,1.50
2023-01-22T01:42:48.392Z,1.40
2023-01-22T01:46:53.347Z,1.20
2023-01-22T01:51:01.227Z,1.50
2023-01-22T01:55:03.371Z,1.30
2023-01-22T01:59:08.017Z,1.30
2023-01-22T02:03:09.120Z,1.60
2023-01-22T02:07:10.172Z,1.70
2023-01-22T02:11:11.363Z,1.00
2023-01-22T02:15:13.555Z,1.30
2023-01-22T02:19:14.622Z,1.50
2023-01-22T02:23:15.641Z,1.20
2023-01-22T02:27:16.807Z,2.00
2023-01-22T02:31:18.124Z,1.40
2023-01-22T02:35:19.045Z,1.30
2023-01-22T02:39:20.027Z,1.30
2023-01-22T02:43:21.112Z,1.10
2023-01-22T02:47:22.054Z,1.80
2023-01-22T02:51:23.545Z,1.80
2023-01-22T02:55:24.966Z,1.60
2023-01-22T02:59:26.197Z,1.80
2023-01-22T03:03:27.281Z,1.70
2023-01-22T03:07:31.663Z,1.40
2023-01-22T03:11:35.448Z,1.10
2023-01-22T03:15:57.780Z,1.50
2023-01-22T03:20:17.462Z,1.40
2023-01-22T03:24:18.554Z,1.90
2023-01-22T03:28:19.628Z,2.20
2023-01-22T03:32:21.738Z,2.00
2023-01-22T03:36:22.918Z,2.10
2023-01-22T03:40:23.871Z,2.10
2023-01-22T03:44:25.455Z,2.10
2023-01-22T03:48:26.267Z,2.20
2023-01-22T03:52:27.106Z,1.50
2023-01-22T03:56:28.188Z,1.70
2023-01-22T04:00:29.372Z,2.00
2023-01-22T04:04:30.273Z,2.20
2023-01-22T04:08:33.162Z,2.30
2023-01-22T04:12:34.241Z,2.20
2023-01-22T04:16:35.304Z,2.10
2023-01-22T04:20:36.514Z,1.80
2023-01-22T04:24:37.589Z,2.00
2023-01-22T04:28:38.679Z,2.00
2023-01-22T04:32:39.734Z,2.20
2023-01-22T04:36:40.855Z,2.00
2023-01-22T04:40:42.041Z,2.30
2023-01-22T04:44:43.186Z,2.00
2023-01-22T04:48:45.411Z,1.80
2023-01-22T04:52:46.900Z,1.90
2023-01-22T04:56:47.976Z,2.10
2023-01-22T05:00:48.900Z,1.70
2023-01-22T05:04:49.856Z,1.70
2023-01-22T05:08:50.923Z,1.60
2023-01-22T05:12:52.121Z,2.00
2023-01-22T05:16:53.194Z,1.50
2023-01-22T05:20:54.298Z,1.50
2023-01-22T05:24:55.457Z,1.70
2023-01-22T05:28:56.595Z,2.00
2023-01-22T05:32:57.545Z,2.10
2023-01-22T05:36:58.680Z,2.30
2023-01-22T05:40:59.850Z,1.70
2023-01-22T05:45:00.933Z,2.40
2023-01-22T05:49:01.896Z,1.90
2023-01-22T05:53:03.312Z,2.30
2023-01-22T05:57:04.625Z,2.20
2023-01-22T06:01:06.101Z,2.00
2023-01-22T06:05:07.748Z,2.20
2023-01-22T06:09:13.550Z,2.30
2023-01-22T06:13:14.636Z,2.30
2023-01-22T06:17:15.753Z,2.40
2023-01-22T06:21:16.700Z,2.20
2023-01-22T06:25:18.008Z,2.10
2023-01-22T06:29:19.246Z,2.60
2023-01-22T06:33:20.386Z,2.80
2023-01-22T06:37:22.207Z,2.50
2023-01-22T06:41:23.363Z,2.80
2023-01-22T06:45:24.445Z,2.60
2023-01-22T06:49:25.560Z,3.00
2023-01-22T06:53:27.090Z,2.10
2023-01-22T06:57:28.287Z,2.30
2023-01-22T07:01:29.445Z,3.00
2023-01-22T07:05:30.588Z,3.20
2023-01-22T07:09:31.557Z,2.60
2023-01-22T07:13:32.773Z,2.00
2023-01-22T07:17:34.507Z,2.20
2023-01-22T07:21:35.456Z,2.50
2023-01-22T07:25:36.958Z,2.80
2023-01-22T07:29:37.991Z,2.80
2023-01-22T07:33:39.282Z,2.20
2023-01-22T07:37:40.280Z,2.80
2023-01-22T07:41:41.591Z,2.20
2023-01-22T07:45:42.911Z,2.90
2023-01-22T07:49:43.923Z,2.80
2023-01-22T07:53:45.024Z,3.00
2023-01-22T07:57:46.256Z,2.80
2023-01-22T08:01:47.521Z,2.60
2023-01-22T08:05:48.518Z,2.10
2023-01-22T08:09:49.786Z,2.50
2023-01-22T08:13:50.972Z,2.40
2023-01-22T08:17:52.190Z,2.80
2023-01-22T08:21:53.309Z,2.30
2023-01-22T08:25:59.998Z,2.70
2023-01-22T08:30:01.869Z,2.70
2023-01-22T08:34:02.977Z,3.10
2023-01-22T08:38:03.947Z,3.20
2023-01-22T08:42:05.111Z,2.60
2023-01-22T08:46:06.268Z,2.60
2023-01-22T08:50:08.496Z,3.30
2023-01-22T08:54:09.630Z,3.10
2023-01-22T08:58:10.655Z,2.30
2023-01-22T09:02:13.707Z,2.90
2023-01-22T09:06:14.813Z,2.90
2023-01-22T09:10:16.405Z,2.50
2023-01-22T09:14:17.887Z,3.50
2023-01-22T09:18:19.011Z,3.80
2023-01-22T09:22:20.126Z,3.10
2023-01-22T09:26:21.108Z,3.40
2023-01-22T09:30:24.518Z,3.30
2023-01-22T09:34:25.685Z,3.70
2023-01-22T09:38:26.656Z,3.70
2023-01-22T09:42:31.485Z,4.00
2023-01-22T09:46:54.270Z,3.40
2023-01-22T09:50:55.480Z,3.10
2023-01-22T09:54:56.791Z,3.30
2023-01-22T09:59:00.456Z,2.90
2023-01-22T10:03:05.258Z,2.80
2023-01-22T10:07:10.108Z,3.30
2023-01-22T10:11:12.529Z,2.80
2023-01-22T10:15:16.103Z,2.50
2023-01-22T10:19:30.073Z,2.40
2023-01-22T10:23:33.385Z,2.50
2023-01-22T10:27:38.794Z,2.50
2023-01-22T10:31:49.667Z,2.60
2023-01-22T10:35:53.466Z,3.00
2023-01-22T10:39:59.346Z,2.40
2023-01-22T10:44:16.307Z,3.30
2023-01-22T10:48:17.600Z,3.60
2023-01-22T10:52:24.717Z,3.00
2023-01-22T10:56:32.029Z,2.90
2023-01-22T11:00:50.424Z,3.20
2023-01-22T11:04:39.163Z,3.00
2023-01-22T11:08:53.112Z,3.30
2023-01-22T11:13:07.020Z,3.20
2023-01-22T11:17:23.673Z,3.10
2023-01-22T11:21:28.694Z,2.90
2023-01-22T11:25:33.556Z,3.70
2023-01-22T11:29:38.325Z,3.50
2023-01-22T11:33:50.636Z,3.50
2023-01-22T11:38:15.854Z,3.80
2023-01-22T11:42:23.658Z,3.50
2023-01-22T11:46:46.704Z,3.80
2023-01-22T11:50:57.706Z,3.80
2023-01-22T11:55:02.535Z,3.50
2023-01-22T11:59:10.068Z,3.90
2023-01-22T12:03:33.382Z,4.10
2023-01-22T12:07:53.653Z,3.80
2023-01-22T12:12:01.739Z,3.30
2023-01-22T12:16:10.781Z,3.70
2023-01-22T12:20:30.846Z,3.90
2023-01-22T12:24:35.891Z,4.00
2023-01-22T12:28:52.675Z,3.90
2023-01-22T12:32:57.427Z,4.10
2023-01-22T12:37:01.310Z,4.00
2023-01-22T12:41:18.239Z,4.10
2023-01-22T12:45:26.239Z,4.50
2023-01-22T12:49:27.771Z,4.30
2023-01-22T12:53:34.350Z,4.20
2023-01-22T12:57:38.995Z,3.70
2023-01-22T13:01:40.144Z,3.80
2023-01-22T13:05:44.546Z,3.90
2023-01-22T13:09:45.742Z,4.30
2023-01-22T13:13:50.549Z,4.30
2023-01-22T13:18:22.671Z,4.90
2023-01-22T13:22:26.314Z,4.10
2023-01-22T13:26:30.847Z,3.80
2023-01-22T13:30:31.858Z,4.60
2023-01-22T13:34:32.919Z,5.10
2023-01-22T13:38:34.186Z,4.70
2023-01-22T13:42:35.225Z,4.80
2023-01-22T13:46:37.763Z,4.50
2023-01-22T13:50:39.034Z,4.70
2023-01-22T13:54:43.511Z,4.00
2023-01-22T13:58:49.086Z,4.50
2023-01-22T14:02:47.873Z,4.30
2023-01-22T14:06:49.901Z,4.30
2023-01-22T14:10:57.905Z,4.10
2023-01-22T14:14:59.006Z,3.80
2023-01-22T14:19:01.667Z,4.20
2023-01-22T14:23:04.435Z,4.00
2023-01-22T14:27:05.498Z,3.90
2023-01-22T14:31:06.893Z,4.10
2023-01-22T14:35:17.510Z,4.10
2023-01-22T14:39:18.498Z,2.80
2023-01-22T14:43:19.832Z,3.50
2023-01-22T14:47:20.811Z,3.80
2023-01-22T14:51:22.268Z,3.40
2023-01-22T14:55:23.603Z,3.80
2023-01-22T14:59:25.059Z,4.10
2023-01-22T15:03:28.453Z,3.30
2023-01-22T15:07:29.460Z,4.10
2023-01-22T15:11:31.244Z,4.10
2023-01-22T15:15:32.348Z,3.40
2023-01-22T15:19:40.871Z,3.20
2023-01-22T15:23:36.532Z,4.30
2023-01-22T15:27:38.152Z,4.50
2023-01-22T15:31:39.947Z,4.10
2023-01-22T15:35:41.155Z,4.50
2023-01-22T15:39:42.366Z,3.60
2023-01-22T15:43:43.725Z,3.70
2023-01-22T15:47:44.748Z,4.00
2023-01-22T15:51:45.818Z,3.90
2023-01-22T15:55:50.010Z,3.50
2023-01-22T15:59:52.197Z,3.20
2023-01-22T16:03:53.993Z,4.10
2023-01-22T16:07:55.967Z,3.60
2023-01-22T16:11:56.964Z,4.20
2023-01-22T16:15:59.991Z,4.20
2023-01-22T16:20:01.024Z,3.70
2023-01-22T16:24:03.509Z,3.10
2023-01-22T16:28:05.851Z,3.20
2023-01-22T16:32:07.550Z,3.40
2023-01-22T16:36:11.518Z,3.90
2023-01-22T16:40:13.503Z,3.60
2023-01-22T16:44:17.810Z,3.40
2023-01-22T16:48:19.098Z,2.60
2023-01-22T16:52:22.803Z,2.80
2023-01-22T16:56:23.203Z,2.90
2023-01-22T17:00:24.512Z,3.10
2023-01-22T17:04:25.798Z,3.10
2023-01-22T17:08:27.640Z,3.60
2023-01-22T17:12:28.958Z,2.40
2023-01-22T17:16:30.203Z,2.80
2023-01-22T17:20:33.020Z,2.90
2023-01-22T17:24:34.289Z,2.90
2023-01-22T17:28:36.964Z,2.60
2023-01-22T17:32:38.036Z,2.30
2023-01-22T17:36:40.213Z,3.00
2023-01-22T17:40:42.421Z,3.00
2023-01-22T17:44:44.420Z,2.60
2023-01-22T17:48:47.183Z,2.20
2023-01-22T17:52:48.749Z,2.40
2023-01-22T17:56:51.662Z,2.90
2023-01-22T18:00:53.043Z,2.70
2023-01-22T18:04:55.174Z,2.40
2023-01-22T18:08:56.483Z,2.70
2023-01-22T18:12:57.710Z,2.70
2023-01-22T18:17:02.141Z,2.60
2023-01-22T18:21:05.220Z,2.60
2023-01-22T18:25:10.714Z,2.80
2023-01-22T18:29:11.890Z,2.60
2023-01-22T18:33:14.184Z,2.50
2023-01-22T18:37:15.542Z,3.00
2023-01-22T18:41:20.371Z,3.20
2023-01-22T18:45:24.305Z,3.00
2023-01-22T18:49:40.064Z,2.80
2023-01-22T18:53:42.348Z,2.90
2023-01-22T18:57:49.545Z,3.00
2023-01-22T19:01:52.432Z,3.00
2023-01-22T19:05:54.049Z,3.10
2023-01-22T19:09:55.670Z,3.20
2023-01-22T19:13:58.242Z,3.00
2023-01-22T19:18:00.902Z,3.40
2023-01-22T19:22:02.755Z,2.80
2023-01-22T19:26:16.200Z,3.00
2023-01-22T19:30:18.043Z,2.70
2023-01-22T19:34:24.950Z,2.80
2023-01-22T19:38:27.827Z,3.20
2023-01-22T19:42:29.124Z,2.60
2023-01-22T19:46:30.688Z,3.00
2023-01-22T19:50:33.730Z,3.00
2023-01-22T19:54:37.943Z,3.20
2023-01-22T19:58:38.918Z,3.10
2023-01-22T20:02:40.461Z,3.50
2023-01-22T20:06:43.390Z,3.50
2023-01-22T20:10:44.787Z,3.20
2023-01-22T20:14:47.865Z,3.50
2023-01-22T20:18:50.070Z,3.30
2023-01-22T20:22:52.363Z,3.20
2023-01-22T20:26:54.673Z,3.40
2023-01-22T20:30:58.297Z,3.40
2023-01-22T20:34:59.334Z,3.20
2023-01-22T20:39:02.317Z,3.20
2023-01-22T20:43:03.359Z,3.20
2023-01-22T20:47:04.493Z,3.50
2023-01-22T20:51:09.292Z,3.30
2023-01-22T20:55:12.749Z,4.00
2023-01-22T20:59:16.530Z,4.10
2023-01-22T21:03:17.687Z,2.90
2023-01-22T21:07:19.441Z,2.90
2023-01-22T21:11:21.372Z,2.80
2023-01-22T21:15:22.391Z,2.50
2023-01-22T21:19:25.416Z,2.90
2023-01-22T21:23:26.577Z,2.70
2023-01-22T21:27:27.824Z,3.00
2023-01-22T21:31:29.287Z,3.20
2023-01-22T21:35:30.454Z,3.00
2023-01-22T21:39:31.398Z,3.50
2023-01-22T21:43:50.943Z,3.20
2023-01-22T21:47:51.926Z,3.40
2023-01-22T21:51:56.323Z,3.10
2023-01-22T21:55:57.180Z,3.10
2023-01-22T21:59:58.477Z,3.10
2023-01-22T22:04:00.623Z,2.90
2023-01-22T22:08:02.456Z,2.60
2023-01-22T22:12:04.227Z,2.60
2023-01-22T22:16:07.581Z,2.40
2023-01-22T22:20:09.934Z,2.70
2023-01-22T22:24:11.286Z,3.00
2023-01-22T22:28:12.415Z,2.70
2023-01-22T22:32:13.640Z,3.00
2023-01-22T22:36:16.466Z,2.70
2023-01-22T22:40:18.715Z,3.20
2023-01-22T22:44:19.812Z,2.50
2023-01-22T22:48:22.157Z,3.30
2023-01-22T22:52:23.368Z,2.60
2023-01-22T22:56:25.475Z,2.50
2023-01-22T23:00:26.624Z,2.40
2023-01-22T23:04:28.007Z,2.70
2023-01-22T23:08:29.066Z,2.30
2023-01-22T23:12:30.161Z,1.90
2023-01-22T23:16:34.492Z,2.00
2023-01-22T23:20:35.939Z,2.00
2023-01-22T23:24:38.472Z,2.40
2023-01-22T23:28:39.676Z,2.60
2023-01-22T23:32:42.189Z,2.80
2023-01-22T23:36:44.876Z,2.30
2023-01-22T23:40:45.850Z,2.60
2023-01-22T23:44:47.000Z,2.50
2023-01-22T23:48:48.785Z,2.00
2023-01-22T23:52:49.852Z,2.40
2023-01-22T23:56:50.854Z,2.80
